Main page
METAR-TAF:

METAR-TAF

Airports :

Hakkari–Yüksekova Airport

Yüksekova, Turkey

latitude: 37-33-06N, longitude: 44-14-01E, elevation: 1950 m

Current weather observation

The report was made 3 hours and 46 minutes ago, at 12:50 UTC
Wind 12 kt from the Southwest, varying between South and West/Southwest
Temperature 29°C
Humidity 15%
Pressure 1020 hPa
Visibility 10 km or more
Few clouds at a height of 4000 ft

METAR: LTCW 221250Z 22012KT 190V250 9999 FEW040 29/00 Q1020

Time: 19:36 (16:36 UTC)

Forecast

The report was made 2 hours and 56 minutes ago, at 13:40 UTC
Forecast valid from 22 at 15 UTC to 22 at 24 UTC
Wind 12 kt from the South/Southwest
Visibility 10 km or more
Few clouds at a height of 4000 ft
Becoming
from 22 at 15 UTC to 22 at 17 UTC
Wind 2 kt from variable directions
Visibility 10 km or more
no clouds below 1500 m and no cumulonimbus

TAF: LTCW 221340Z 2215/2224 20012KT 9999 FEW040 BECMG 2215/2217 VRB02KT CAVOK

Weather observations and forecasts of more than 4000 airports (METAR and TAF reports).

The available stations are represented by yellow and red dots on the map.

Hover mouse over dot to see the name of the station.

Then click to see weather observations and forecasts.

To change the map : click on the green buttons with a black cross to zoom in, on the green button with a dash to zoom out, or on the green arrows for adjacent maps.


METAR-TAF: